• Join FlightAware (Why Join?)
  • Login
  • US Flag 
04:55AM EDT


 

Airport Tracker/Info


-or-


 

Live Flight TrackerFlight Track Log ✈ ASQ5958 ✈ 06-May-2013 ✈ KSYR - KORD

Flight Track Log - Related Links

Times and Time Zones

All times are in EDT time to prevent confusion due to time zone crossing. See the ASQ5958 flight status page for this flight to view local times or setup timezone preferences in your user account.

Time Position Orientation Groundspeed Altitude Reporting Facility
EDT Latitude Longitude Course Direction KTS MPH feet Rate Location/Type
12:15PM 43.0967 -76.0858 123° Southeast 166 191 1,200  Level Boston Center
12:16PM 43.0692 -76.0272 123° Southeast 194 223 3,300 2,040 Climbing Boston Center
12:18PM 43.0629 -76.1854 283° West  Level Estimated
12:20PM 43.1453 -76.2292 280° West 225 259 10,700  Level Cleveland Center
12:21PM 43.1456 -76.3458 270° West 271 312 11,900 1,380 Climbing Cleveland Center
12:24PM 43.1333 -76.6833 267° West 350 403 16,000 1,380 Climbing Toronto Center
12:25PM 43.0234 -77.0824 280° West  Level Estimated
12:25PM 43.1433 -76.8925 274° West 363 418 17,600  Level Cleveland Center
12:26PM 43.1417 -77.0378 269° West 375 432 18,700 1,140 Climbing Cleveland Center
12:27PM 43.1397 -77.1831 269° West 381 438 19,900 1,140 Climbing Cleveland Center
12:28PM 43.1397 -77.3311 270° West 386 444 21,100 1,140 Climbing Cleveland Center
12:29PM 43.1378 -77.4819 269° West 386 444 22,300 1,200 Climbing Cleveland Center
12:31PM 43.1350 -77.7808 269° West 397 457 24,800 1,260 Climbing Cleveland Center
12:33PM 43.1167 -78.0167 264° West 390 449 26,900 1,200 Climbing Toronto Center
12:33PM 43.1292 -78.0800 285° West 397 457 27,200 1,140 Climbing Cleveland Center
12:35PM 43.1267 -78.3558 269° West 392 451 29,600 1,140 Climbing Cleveland Center
12:36PM 43.1231 -78.4983 268° West 387 445 30,800 1,200 Climbing Cleveland Center
12:38PM 43.1172 -78.7858 269° West 387 445 33,300 1,200 Climbing Cleveland Center
12:40PM 43.1089 -79.0675 268° West 382 440 35,700 720 Climbing Cleveland Center
12:42PM 43.1000 -79.3167 267° West 380 437 36,000 60 Climbing Toronto Center
12:43PM 43.0833 -79.4667 261° West 400 460 36,000  Level Toronto Center
12:45PM 43.0833 -79.8000 270° West 430 495 36,000  Level Toronto Center
12:47PM 43.0753 -80.0460 268° West  Level FlightAware Approximate
12:48PM 43.0667 -80.2667 268° West 430 495 36,000  Level Toronto Center
12:49PM 43.0667 -80.4333 270° West 430 495 36,000  Level Toronto Center
12:50PM 43.0500 -80.5833 261° West 430 495 36,000  Level Toronto Center
12:51PM 43.0500 -80.7667 270° West 430 495 36,000  Level Toronto Center
12:52PM 43.0333 -80.9333 262° West 430 495 36,000  Level Toronto Center
12:53PM 43.0167 -81.1000 262° West 440 506 36,000  Level Toronto Center
12:54PM 43.0167 -81.2500 270° West 440 506 36,000  Level Toronto Center
12:55PM 43.0167 -81.4333 270° West 450 518 36,000  Level Toronto Center
12:56PM 43.0167 -81.6000 270° West 440 506 36,000  Level Toronto Center
12:57PM 43.0167 -81.7500 270° West 440 506 36,000  Level Toronto Center
12:58PM 43.0000 -81.9333 263° West 440 506 36,000  Level Toronto Center
12:59PM 43.0139 -82.1903 274° West 440 506 36,000  Level Cleveland Center
01:00PM 43.0000 -82.2500 252° West 420 483 36,000  Level Toronto Center
01:02PM 43.1278 -82.4595 303° West  Level FlightAware Approximate
01:02PM 43.1681 -82.5842 303° West 394 453 36,000  Level Cleveland Center
01:05PM 43.1337 -82.8539 260° West  Level FlightAware Approximate
01:05PM 43.1781 -83.0431 260° West 415 478 36,000  Level Cleveland Center
01:07PM 43.1409 -83.2293 255° West  Level FlightAware Approximate
01:09PM 43.0786 -83.7014 258° West 446 513 34,000  Level Cleveland Center
01:11PM 43.0414 -83.8701 259° West  Level FlightAware Approximate
01:11PM 43.0278 -84.0256 259° West 441 507 32,500  Level Cleveland Center
01:12PM 43.0019 -84.1889 258° West 446 513 32,000 -180 Descending Cleveland Center
01:14PM 42.9902 -84.2059 259° West  Level FlightAware Approximate
01:15PM 42.9689 -84.3454 258° West  Level FlightAware Approximate
01:15PM 42.9167 -84.6000 254° West 460 529 32,000  Level Toronto Center
01:15PM 42.9156 -84.7247 269° West 451 519 32,000  Level Chicago Center
01:17PM 42.8864 -84.9042 258° West 413 475 32,000 -120 Level Chicago Center
01:19PM 42.8372 -85.1978 257° West 400 460 31,800 -720 Descending Chicago Center
01:21PM 42.7859 -85.4602 261° West  Level FlightAware Approximate
01:22PM 42.7564 -85.6611 261° West 412 474 28,500  Level Chicago Center
01:23PM 42.7300 -85.8061 256° West 397 457 26,500 -1,260 Descending Chicago Center
01:24PM 42.6606 -85.9378 234° Southwest 361 415 26,000 -780 Descending Chicago Center
01:25PM 42.5922 -86.0394 228° Southwest 361 415 25,000 -1,620 Descending Chicago Center
01:27PM 42.5216 -86.2620 251° West  Level Estimated
01:27PM 42.6353 -86.2778 251° West 346 398 21,000  Level Chicago Center
01:29PM 42.5953 -86.5319 258° West 365 420 19,000 -1,800 Descending Chicago Center
01:31PM 42.5431 -86.7422 250° West  Level FlightAware Approximate
01:32PM 42.5008 -86.9472 217° Southwest 352 405 11,900  Level Chicago Center
01:34PM 42.4381 -87.1357 246° West  Level FlightAware Approximate
01:35PM 42.4000 -87.3167 246° West 355 409 10,000  Level Chicago TRACON
01:36PM 42.3667 -87.4167 246° West 357 411 10,000  Level Chicago TRACON
01:36PM 42.3614 -87.4519 259° West 359 413 10,000  Level Chicago Center
01:38PM 42.2545 -87.6121 217° Southwest  Level FlightAware Approximate
01:38PM 42.2500 -87.6167 228° Southwest 345 397 10,000  Level Chicago TRACON
01:38PM 42.2206 -87.6597 227° Southwest 347 399 10,000  Level Chicago Center
01:40PM 42.1000 -87.7833 217° Southwest 306 352 10,000 -480 Level Chicago TRACON
01:42PM 41.9817 -87.9067 206° Southwest  Level Estimated
01:43PM 42.0500 -88.0167 206° Southwest 195 224 7,900  Level Chicago TRACON
01:44PM 42.0494 -88.1358 270° West 196 226 5,800 -1,380 Descending Chicago Center
01:46PM 42.0000 -88.1167 164° South 171 197 3,800 -1,260 Descending Chicago TRACON
01:47PM 41.9833 -88.0667 114° Southeast 163 188 2,800 -840 Descending Chicago TRACON
01:49PM 41.9833 -87.9667 90° East 127 146 1,400 -780 Descending Chicago TRACON
01:52PM 41.9817 -87.9067 97° East  Level Estimated
01:59PM 41.9817 -87.9067 97° East  Level Estimated
02:00PM 41.9817 -87.9067 97° East  Level Estimated
02:01PM 41.9817 -87.9067 97° East  Level Estimated
02:02PM 41.9817 -87.9067 97° East  Level Estimated
02:03PM 41.9817 -87.9067 97° East  Level Estimated
02:04PM 41.9817 -87.9067 97° East  Level Estimated
02:05PM 41.9817 -87.9067 97° East  Level Estimated
02:06PM 41.9817 -87.9067 97° East  Level Estimated